createdAt,value
2018-12-17T00:00:33.159Z,13.20
2018-12-17T00:03:01.712Z,16.17
2018-12-17T00:05:30.617Z,12.40
2018-12-17T00:07:59.253Z,18.03
2018-12-17T00:10:27.735Z,16.17
2018-12-17T00:12:56.195Z,18.37
2018-12-17T00:15:24.654Z,15.10
2018-12-17T00:17:53.116Z,15.00
2018-12-17T00:20:21.604Z,13.03
2018-12-17T00:22:50.221Z,13.73
2018-12-17T00:25:18.688Z,24.47
2018-12-17T00:27:47.203Z,14.90
2018-12-17T00:30:15.823Z,15.63
2018-12-17T00:32:44.316Z,15.47
2018-12-17T00:35:12.805Z,15.77
2018-12-17T00:37:41.301Z,15.80
2018-12-17T00:40:10.210Z,15.33
2018-12-17T00:42:38.707Z,14.30
2018-12-17T00:45:07.471Z,15.63
2018-12-17T00:47:35.957Z,14.43
2018-12-17T00:50:05.471Z,15.13
2018-12-17T00:52:33.995Z,14.77
2018-12-17T00:55:02.459Z,14.80
2018-12-17T00:57:30.956Z,14.03
2018-12-17T00:59:59.462Z,13.50
2018-12-17T01:02:27.968Z,13.67
2018-12-17T01:04:56.466Z,13.63
2018-12-17T01:07:31.646Z,21.97
2018-12-17T01:10:00.183Z,15.93
2018-12-17T01:12:28.732Z,12.90
2018-12-17T01:14:57.312Z,15.07
2018-12-17T01:17:25.853Z,14.83
2018-12-17T01:19:54.442Z,13.63
2018-12-17T01:22:26.280Z,13.17
2018-12-17T01:24:55.320Z,15.87
2018-12-17T01:27:24.333Z,20.37
2018-12-17T01:29:54.092Z,23.67
2018-12-17T01:35:06.369Z,21.37
2018-12-17T01:37:40.936Z,15.23
2018-12-17T01:40:13.424Z,22.57
2018-12-17T01:42:42.008Z,22.23
2018-12-17T01:45:10.605Z,23.10
2018-12-17T01:47:40.172Z,21.07
2018-12-17T01:50:11.241Z,25.00
2018-12-17T01:52:42.123Z,27.73
2018-12-17T01:55:10.901Z,20.17
2018-12-17T01:57:42.390Z,23.13
2018-12-17T02:00:11.787Z,22.47
2018-12-17T02:02:45.022Z,26.03
2018-12-17T02:05:19.212Z,16.93
2018-12-17T02:07:53.209Z,18.03
2018-12-17T02:10:23.130Z,17.27
2018-12-17T02:17:10.079Z,21.67
2018-12-17T02:19:49.731Z,23.07
2018-12-17T02:22:19.614Z,17.07
2018-12-17T02:24:50.252Z,16.00
2018-12-17T02:27:20.965Z,14.97
2018-12-17T02:29:52.027Z,17.20
2018-12-17T02:32:25.823Z,17.70
2018-12-17T02:35:01.270Z,20.80
2018-12-17T02:37:32.728Z,20.67
2018-12-17T02:40:02.024Z,19.43
2018-12-17T02:42:32.650Z,19.77
2018-12-17T02:45:08.502Z,15.17
2018-12-17T02:47:37.921Z,14.70
2018-12-17T02:50:07.484Z,17.57
2018-12-17T02:52:38.532Z,19.70
2018-12-17T02:55:08.646Z,17.90
2018-12-17T02:57:40.199Z,14.93
2018-12-17T03:00:11.024Z,13.80
2018-12-17T03:02:42.665Z,14.20
2018-12-17T03:05:13.943Z,16.73
2018-12-17T03:07:43.240Z,15.00
2018-12-17T03:10:14.215Z,13.53
2018-12-17T03:12:43.051Z,13.83
2018-12-17T03:15:13.470Z,12.37
2018-12-17T03:17:43.425Z,14.00
2018-12-17T03:20:14.456Z,14.27
2018-12-17T03:22:44.790Z,15.27
2018-12-17T03:25:14.362Z,13.57
2018-12-17T03:27:44.301Z,13.83
2018-12-17T03:30:14.960Z,13.63
2018-12-17T03:32:45.515Z,13.37
2018-12-17T03:35:14.566Z,16.07
2018-12-17T03:37:45.472Z,16.53
2018-12-17T03:40:16.388Z,18.73
2018-12-17T03:42:50.793Z,12.33
2018-12-17T03:49:37.383Z,11.70
2018-12-17T03:55:14.754Z,12.30
2018-12-17T03:57:53.173Z,12.43
2018-12-17T04:00:25.578Z,13.77
2018-12-17T04:03:02.859Z,12.13
2018-12-17T04:05:36.569Z,13.57
2018-12-17T04:08:49.709Z,12.30
2018-12-17T04:11:24.010Z,13.03
2018-12-17T04:13:58.265Z,11.93
2018-12-17T04:16:30.549Z,13.07
2018-12-17T04:19:02.869Z,13.17
2018-12-17T04:21:36.472Z,10.77
2018-12-17T04:24:11.649Z,10.70
2018-12-17T04:26:46.240Z,12.10
2018-12-17T04:29:17.023Z,10.57
2018-12-17T04:32:07.970Z,15.27
2018-12-17T04:38:12.034Z,10.97
2018-12-17T04:42:04.936Z,10.30
2018-12-17T04:44:56.431Z,10.47
2018-12-17T04:52:38.161Z,9.90
2018-12-17T04:55:10.435Z,11.53
2018-12-17T04:57:42.581Z,9.93
2018-12-17T05:00:25.224Z,13.07
2018-12-17T05:03:20.667Z,12.30
2018-12-17T05:05:53.489Z,11.10
2018-12-17T05:08:32.787Z,11.17
2018-12-17T05:11:16.341Z,11.80
2018-12-17T05:14:07.025Z,11.57
2018-12-17T05:17:04.829Z,11.33
2018-12-17T05:19:49.495Z,14.50
2018-12-17T05:22:24.703Z,11.63
2018-12-17T05:24:59.919Z,11.60
2018-12-17T05:27:49.026Z,11.53
2018-12-17T05:36:56.161Z,10.97
2018-12-17T05:43:01.017Z,11.07
2018-12-17T05:48:23.063Z,13.07
2018-12-17T05:50:53.204Z,12.67
2018-12-17T05:53:26.988Z,16.47
2018-12-17T05:55:57.817Z,14.67
2018-12-17T05:58:31.886Z,14.83
2018-12-17T06:14:38.029Z,14.53
2018-12-17T06:17:08.754Z,10.67
2018-12-17T06:19:37.446Z,9.87
2018-12-17T06:22:07.652Z,11.43
2018-12-17T06:24:36.383Z,10.03
2018-12-17T06:27:06.883Z,8.30
2018-12-17T06:29:35.775Z,9.10
2018-12-17T06:32:05.811Z,9.67
2018-12-17T06:34:35.240Z,11.17
2018-12-17T06:37:05.856Z,11.20
2018-12-17T06:39:34.562Z,12.03
2018-12-17T06:42:03.861Z,10.03
2018-12-17T06:44:33.079Z,14.77
2018-12-17T06:47:01.769Z,9.17
2018-12-17T06:49:30.937Z,12.53
2018-12-17T06:52:01.871Z,11.43
2018-12-17T06:54:31.250Z,13.43
2018-12-17T06:57:00.847Z,11.20
2018-12-17T06:59:30.068Z,13.07
2018-12-17T07:02:00.177Z,11.80
2018-12-17T07:04:29.007Z,13.13
2018-12-17T07:06:57.715Z,11.73
2018-12-17T07:09:27.016Z,10.83
2018-12-17T07:11:55.708Z,13.53
2018-12-17T07:14:25.208Z,14.60
2018-12-17T07:16:54.000Z,10.97
2018-12-17T07:19:22.703Z,10.93
2018-12-17T07:21:52.978Z,11.90
2018-12-17T07:24:21.865Z,12.43
2018-12-17T07:26:51.001Z,11.30
2018-12-17T07:29:19.614Z,11.53
2018-12-17T07:31:50.786Z,10.80
2018-12-17T07:34:19.471Z,10.10
2018-12-17T07:36:48.240Z,11.97
2018-12-17T07:39:18.625Z,11.30
2018-12-17T07:41:47.331Z,10.10
2018-12-17T07:44:17.104Z,8.77
2018-12-17T07:46:46.392Z,9.90
2018-12-17T07:49:16.649Z,9.37
2018-12-17T07:51:45.408Z,12.53
2018-12-17T07:54:16.199Z,11.60
2018-12-17T07:56:45.909Z,9.67
2018-12-17T07:59:14.691Z,12.43
2018-12-17T08:01:44.946Z,13.40
2018-12-17T08:04:14.612Z,9.10
2018-12-17T08:06:43.976Z,9.80
2018-12-17T08:09:13.361Z,9.70
2018-12-17T08:11:44.404Z,9.33
2018-12-17T08:14:13.227Z,9.60
2018-12-17T08:16:42.600Z,8.90
2018-12-17T08:19:12.696Z,10.33
2018-12-17T08:21:42.423Z,9.47
2018-12-17T08:24:11.760Z,10.87
2018-12-17T08:26:40.489Z,9.77
2018-12-17T08:29:09.776Z,7.23
2018-12-17T08:31:39.244Z,10.30
2018-12-17T08:34:09.421Z,8.87
2018-12-17T08:36:39.753Z,8.47
2018-12-17T08:39:09.525Z,9.83
2018-12-17T08:41:41.100Z,9.13
2018-12-17T08:44:10.781Z,9.17
2018-12-17T08:46:41.352Z,9.27
2018-12-17T08:49:11.153Z,8.70
2018-12-17T08:51:39.861Z,9.23
2018-12-17T08:54:08.545Z,9.40
2018-12-17T08:56:40.078Z,9.13
2018-12-17T08:59:09.379Z,8.40
2018-12-17T09:01:38.407Z,9.63
2018-12-17T09:04:08.448Z,8.33
2018-12-17T09:06:38.037Z,8.63
2018-12-17T09:09:08.677Z,9.27
2018-12-17T09:11:38.030Z,7.77
2018-12-17T09:14:09.900Z,6.13
2018-12-17T09:16:40.060Z,5.87
2018-12-17T09:19:09.429Z,8.00
2018-12-17T09:21:38.829Z,7.87
2018-12-17T09:24:07.571Z,6.87
2018-12-17T09:26:36.409Z,9.73
2018-12-17T09:29:07.973Z,7.00
2018-12-17T09:31:37.025Z,8.53
2018-12-17T09:34:06.702Z,6.00
2018-12-17T09:36:37.262Z,6.03
2018-12-17T09:39:09.065Z,7.47
2018-12-17T09:41:38.062Z,6.23
2018-12-17T09:44:08.425Z,5.50
2018-12-17T09:46:37.799Z,7.80
2018-12-17T09:49:07.176Z,7.73
2018-12-17T09:51:36.653Z,8.47
2018-12-17T09:54:07.412Z,8.80
2018-12-17T09:56:36.476Z,8.83
2018-12-17T09:59:07.361Z,7.17
2018-12-17T10:01:36.327Z,8.90
2018-12-17T10:04:08.168Z,6.80
2018-12-17T10:06:36.977Z,7.50
2018-12-17T10:09:08.436Z,6.27
2018-12-17T10:11:37.463Z,7.67
2018-12-17T10:14:06.696Z,6.83
2018-12-17T10:16:36.087Z,6.57
2018-12-17T10:19:05.269Z,6.50
2018-12-17T10:21:36.044Z,10.13
2018-12-17T10:24:06.815Z,8.13
2018-12-17T10:26:37.783Z,8.17
2018-12-17T10:29:08.609Z,9.67
2018-12-17T10:31:39.002Z,8.37
2018-12-17T10:34:09.014Z,8.03
2018-12-17T10:36:43.844Z,11.20
2018-12-17T10:39:22.252Z,8.47
2018-12-17T10:44:45.895Z,7.97
2018-12-17T10:47:14.316Z,8.17
2018-12-17T10:49:43.749Z,9.20
2018-12-17T10:52:12.713Z,10.20
2018-12-17T10:54:42.305Z,9.20
2018-12-17T10:57:11.036Z,10.37
2018-12-17T10:59:39.639Z,9.70
2018-12-17T11:02:14.265Z,8.73
2018-12-17T11:04:48.751Z,11.10
2018-12-17T11:07:17.539Z,10.23
2018-12-17T11:09:46.170Z,10.37
2018-12-17T11:12:15.284Z,9.47
2018-12-17T11:14:44.580Z,14.50
2018-12-17T11:17:13.122Z,10.67
2018-12-17T11:19:42.338Z,11.87
2018-12-17T11:22:11.134Z,11.20
2018-12-17T11:24:40.278Z,13.17
2018-12-17T11:27:09.652Z,13.10
2018-12-17T11:29:39.157Z,13.60
2018-12-17T11:32:11.581Z,13.43
2018-12-17T11:34:39.022Z,14.47
2018-12-17T11:37:07.755Z,14.40
2018-12-17T11:39:36.351Z,14.30
2018-12-17T11:42:05.067Z,16.13
2018-12-17T11:44:34.797Z,15.30
2018-12-17T11:47:04.368Z,17.17
2018-12-17T11:49:33.633Z,15.47
2018-12-17T11:52:02.574Z,16.07
2018-12-17T11:54:32.136Z,17.83
2018-12-17T11:57:44.415Z,16.33
2018-12-17T12:00:13.011Z,17.63
2018-12-17T12:02:42.396Z,19.33
2018-12-17T12:05:10.979Z,18.23
2018-12-17T12:07:40.484Z,18.30
2018-12-17T12:10:09.660Z,18.47
2018-12-17T12:12:38.134Z,20.87
2018-12-17T12:15:07.857Z,21.27
2018-12-17T12:17:36.312Z,22.13
2018-12-17T12:20:05.064Z,20.23
2018-12-17T12:22:33.546Z,21.10
2018-12-17T12:25:02.007Z,21.30
2018-12-17T12:27:31.654Z,20.83
2018-12-17T12:30:01.772Z,19.63
2018-12-17T12:32:31.117Z,21.93
2018-12-17T12:34:59.629Z,19.20
2018-12-17T12:37:28.137Z,20.03
2018-12-17T12:39:57.490Z,22.73
2018-12-17T12:42:26.870Z,22.10
2018-12-17T12:44:56.208Z,24.73
2018-12-17T12:47:25.067Z,22.23
2018-12-17T12:49:53.567Z,19.97
2018-12-17T12:52:22.999Z,20.57
2018-12-17T12:54:51.976Z,22.27
2018-12-17T12:57:20.463Z,22.43
2018-12-17T12:59:49.097Z,22.60
2018-12-17T13:02:18.548Z,23.50
2018-12-17T13:04:47.034Z,22.97
2018-12-17T13:07:15.748Z,22.33
2018-12-17T13:09:44.441Z,24.20
2018-12-17T13:12:13.690Z,21.33
2018-12-17T13:14:42.300Z,24.93
2018-12-17T13:17:16.140Z,27.30
2018-12-17T13:19:44.657Z,26.43
2018-12-17T13:22:13.560Z,26.37
2018-12-17T13:24:42.220Z,29.10
2018-12-17T13:27:10.705Z,24.47
2018-12-17T13:29:39.220Z,25.53
2018-12-17T13:32:07.725Z,24.87
2018-12-17T13:34:36.993Z,22.37
2018-12-17T13:37:05.488Z,27.67
2018-12-17T13:39:34.605Z,28.17
2018-12-17T13:42:03.215Z,29.30
2018-12-17T13:44:32.049Z,26.80
2018-12-17T13:47:01.684Z,28.13
2018-12-17T13:49:30.173Z,27.00
2018-12-17T13:52:04.060Z,29.10
2018-12-17T13:54:32.617Z,28.27
2018-12-17T13:57:01.107Z,30.10
2018-12-17T13:59:30.674Z,24.60
2018-12-17T14:01:59.159Z,29.37
2018-12-17T14:04:27.655Z,31.43
2018-12-17T14:06:56.206Z,29.23
2018-12-17T14:09:26.917Z,27.37
2018-12-17T14:11:55.972Z,28.97
2018-12-17T14:14:24.763Z,26.30
2018-12-17T14:16:58.776Z,25.60
2018-12-17T14:19:27.246Z,29.20
2018-12-17T14:21:59.579Z,28.60
2018-12-17T14:24:28.419Z,25.67
2018-12-17T14:26:57.864Z,26.67
2018-12-17T14:29:27.147Z,23.63
2018-12-17T14:31:56.256Z,25.40
2018-12-17T14:34:24.825Z,25.77
2018-12-17T14:36:54.122Z,24.23
2018-12-17T14:39:22.832Z,24.20
2018-12-17T14:41:52.254Z,23.93
2018-12-17T14:44:35.984Z,20.90
2018-12-17T14:47:04.656Z,21.43
2018-12-17T14:49:34.105Z,20.47
2018-12-17T14:52:02.636Z,21.57
2018-12-17T14:54:36.199Z,30.08
2018-12-17T14:57:05.157Z,19.20
2018-12-17T14:59:34.014Z,21.37
2018-12-17T15:02:03.485Z,21.37
2018-12-17T15:04:32.899Z,20.13
2018-12-17T15:07:01.771Z,15.97
2018-12-17T15:09:30.371Z,17.10
2018-12-17T15:11:59.500Z,19.23
2018-12-17T15:14:29.020Z,19.80
2018-12-17T15:16:57.692Z,18.27
2018-12-17T15:19:26.666Z,18.33
2018-12-17T15:21:55.890Z,21.33
2018-12-17T15:24:24.807Z,20.53
2018-12-17T15:26:53.391Z,19.33
2018-12-17T15:29:22.257Z,18.67
2018-12-17T15:31:50.958Z,17.37
2018-12-17T15:34:19.499Z,18.90
2018-12-17T15:36:49.773Z,18.13
2018-12-17T15:39:18.941Z,19.33
2018-12-17T15:41:47.729Z,18.10
2018-12-17T15:44:16.853Z,18.73
2018-12-17T15:46:46.101Z,18.47
2018-12-17T15:49:14.763Z,17.57
2018-12-17T15:51:43.472Z,17.53
2018-12-17T15:54:12.148Z,19.23
2018-12-17T15:56:40.750Z,19.03
2018-12-17T15:59:10.287Z,16.97
2018-12-17T16:01:38.809Z,19.97
2018-12-17T16:04:07.489Z,18.40
2018-12-17T16:06:36.067Z,17.60
2018-12-17T16:09:07.992Z,18.43
2018-12-17T16:11:36.533Z,19.87
2018-12-17T16:14:05.168Z,21.30
2018-12-17T16:16:35.789Z,19.83
2018-12-17T16:19:04.411Z,20.10
2018-12-17T16:21:32.945Z,18.30
2018-12-17T16:24:01.501Z,21.50
